Datum max min   Außentemperatur Tagesdurchschnitt Außenfeuchte Tagesdurchschnitt Taupunkt Tagesdurchschnitt Windchill Tagesdurchschnitt Windgeschwindigkeit Tagesdurchschnitt Gesamtregen Mindesttemperatur Höchsttemperatur Höchste Windgeschwindigkeit  Tägliche Niederschlagsmenge 
  °C % °C °C km/h mm/m² °C °C km/h mm/m²
 
 
1.1.08 1028,0 1025,6 1026,8 -1,4 77,6 -4,8 -1,4 0,7 0,0 -2,6 0,1 14,0 0,0
2.1.08 1026,1 1017,9 1022,0 -3,9 70,2 -8,6 -5,2 4,1 0,0 -7,3 0,4 24,8 0,0
3.1.08 1017,8 1013,8 1015,8 -3,9 63,7 -9,8 -9,6 13,0 0,0 -4,8 -2,8 51,8 0,0
4.1.08 1018,7 1015,2 1017,0 -5,2 67,4 -10,3 -11,3 13,1 0,0 -6,3 -4,1 41,4 0,0
5.1.08 1018,7 1011,9 1015,3 -4,1 72,9 -8,2 -6,7 7,5 0,5 -5,8 -1,3 39,9 0,5
6.1.08 1020,9 1009,1 1015,0 -1,0 81,9 -3,6 -1,6 3,4 1,0 -3,8 2,7 25,5 0,5
7.1.08 1020,7 1013,4 1017,1 1,0 83,8 -1,4 -0,3 5,6 2,0 -3,2 3,7 45,3 1,0
8.1.08 1025,9 1020,4 1023,2 2,4 74,6 -1,7 1,9 3,6 2,0 -0,2 7,0 32,4 0,0
9.1.08 1021,4 1017,0 1019,2 0,8 77,8 -2,7 0,4 3,5 2,0 -2,2 4,3 24,8 0,0
10.1.08 1020,7 1016,9 1018,8 3,9 76,7 0,1 3,5 3,0 2,0 0,4 8,4 27,7 0,0
11.1.08 1017,0 1007,2 1012,1 3,2 67,2 -2,5 2,2 4,6 2,0 -1,3 9,2 29,1 0,0
12.1.08 1018,0 1005,3 1011,7 0,7 74,6 -3,3 0,1 3,4 2,0 -2,8 4,5 28,0 0,0
13.1.08 1021,9 1015,4 1018,7 1,9 72,6 -2,5 1,6 2,6 2,0 -1,2 6,4 13,3 0,0
14.1.08 1015,3 1013,8 1014,6 0,6 81,3 -2,2 -0,6 5,5 2,0 -0,5 4,7 29,5 0,0
15.1.08 1014,2 1002,6 1008,4 1,7 74,4 -2,4 0,1 6,5 2,0 -0,7 4,8 20,5 0,0
16.1.08 1009,3 1001,3 1005,3 2,8 75,1 -1,2 1,2 6,1 3,0 0,8 8,3 29,8 1,0
17.1.08 1015,2 1009,3 1012,3 2,1 82,0 -0,7 1,2 4,9 3,0 0,4 6,0 27,0 0,0
18.1.08 1020,9 1010,6 1015,8 4,5 79,3 1,2 3,1 6,2 4,5 1,2 7,7 21,9 1,5
19.1.08 1024,5 1018,6 1021,6 8,4 87,6 6,4 6,9 7,4 8,6 5,4 9,6 37,0 4,1
20.1.08 1023,1 1019,4 1021,3 8,5 85,9 6,2 7,2 6,5 8,6 7,7 9,6 39,2 0,0
21.1.08 1019,7 1007,0 1013,4 6,7 79,1 3,3 5,4 6,8 9,6 5,1 8,1 38,8 1,0
22.1.08 1027,0 1002,8 1014,9 2,6 73,1 -1,8 1,2 6,7 11,6 -1,6 6,3 44,6 2,0
23.1.08 1031,0 1027,0 1029,0 1,8 62,0 -4,8 1,3 3,4 11,6 -0,8 5,7 27,7 0,0
24.1.08 1029,1 1025,5 1027,3 4,9 61,9 -1,8 4,5 3,0 12,1 2,2 7,6 26,6 0,5
25.1.08 1038,1 1030,4 1034,3 2,2 62,2 -4,5 1,7 3,3 12,1 -1,8 7,8 29,8 0,0
26.1.08 1034,4 1027,4 1030,9 1,9 66,8 -3,6 0,4 6,4 12,1 0,2 3,7 47,1 0,0
27.1.08 1029,4 1022,4 1025,9 2,6 79,5 -0,6 -1,9 12,5 19,2 1,1 5,4 41,7 7,1
28.1.08 1033,4 1029,7 1031,6 5,5 86,3 3,3 5,1 3,2 19,2 4,3 8,1 21,2 0,0
29.1.08 1030,4 1024,3 1027,4 3,7 77,7 0,1 3,7 1,0 19,2 0,5 5,1 16,5 0,0
30.1.08 1024,1 1019,4 1021,8 1,4 76,5 -2,2 0,7 3,1 20,4 -0,3 3,5 26,6 1,2
31.1.08 1024,6 1009,1 1016,9 0,3 70,5 -4,4 -1,3 5,6 20,4 -1,1 2,2 45,3 0,0
1.2.08 1008,8 999,7 1004,3 2,4 75,2 -1,6 0,0 8,7 26,0 -0,3 5,2 50,7 5,6
2.2.08 1022,9 1002,6 1012,8 0,3 74,7 -3,7 -1,2 5,8 26,0 -2,0 2,1 33,1 0,0
3.2.08 1022,9 1013,0 1018,0 -3,1 67,7 -8,3 -3,5 2,3 26,1 -5,7 4,1 29,9 0,1
4.2.08 1015,3 1008,1 1011,7 0,2 69,3 -4,7 -0,6 3,9 26,1 -2,8 3,0 32,7 0,0
5.2.08 1020,0 1015,4 1017,7 3,3 71,0 -1,5 1,7 6,1 27,9 1,7 4,7 38,5 1,8
6.2.08 1028,1 1014,3 1021,2 5,6 79,2 2,3 3,8 7,9 37,4 2,7 7,7 47,5 9,5
7.2.08 1038,0 1028,2 1033,1 1,4 66,8 -4,2 0,1 5,0 37,4 -3,1 6,4 32,0 0,0
8.2.08 1038,8 1036,9 1037,9 2,0 66,0 -3,9 1,9 0,8 37,4 -2,2 10,6 16,5 0,0
9.2.08 1037,2 1035,6 1036,4 1,9 58,4 -5,9 1,8 1,2 37,4 -4,2 10,8 18,0 0,0
10.2.08 1036,5 1034,6 1035,6 3,3 60,3 -4,0 3,2 0,4 37,4 -3,3 14,1 15,8 0,0
11.2.08 1035,9 1034,4 1035,2 2,4 61,9 -4,4 2,3 0,6 37,4 -4,6 13,7 22,3 0,0
12.2.08 1034,6 1033,6 1034,1 2,1 72,4 -2,3 2,0 1,3 37,4 -2,4 6,3 19,4 0,0
13.2.08 1034,8 1033,4 1034,1 0,0 69,5 -4,9 -0,0 0,7 37,4 -3,5 6,4 12,9 0,0
14.2.08 1034,5 1032,4 1033,5 -1,1 76,8 -4,6 -1,3 1,8 37,4 -1,9 -0,2 20,5 0,0
15.2.08 1039,0 1033,3 1036,2 -2,2 61,4 -8,9 -2,8 3,4 37,4 -5,4 0,7 26,2 0,0
16.2.08 1043,5 1038,3 1040,9 -5,7 38,3 -17,1 -4,0 1,8 37,4 -9,2 2,0 12,9 0,0
17.2.08 1043,3 1034,5 1038,9 -4,1 39,5 -17,0 -4,8 3,0 37,4 -10,9 3,1 27,0 0,0
18.2.08 1034,5 1028,1 1031,3 -0,3 32,5 -15,2 -1,0 4,4 37,5 -5,4 4,0 25,2 0,1
19.2.08 1028,2 1024,4 1026,3 1,4 68,2 -3,8 1,4 0,6 37,8 -2,6 3,7 16,5 0,3
20.2.08 1024,4 1020,5 1022,5 2,0 70,0 -3,1 1,5 3,3 38,6 -4,3 11,1 13,3 0,8
21.2.08 1024,4 1021,4 1022,9 4,7 75,0 0,6 4,3 2,9 38,9 2,6 7,1 30,9 0,3
22.2.08 1024,6 1021,5 1023,1 7,1 74,4 2,7 5,0 8,6 39,0 5,1 9,8 54,7 0,1
23.2.08 1028,6 1022,8 1025,7 8,3 60,5 0,9 6,0 8,4 39,0 5,9 10,8 47,1 0,0
24.2.08 1026,6 1019,8 1023,2 9,0 57,5 0,4 8,9 2,3 39,0 0,4 18,3 24,1 0,0
25.2.08 1023,7 1018,9 1021,3 7,8 68,1 2,1 7,4 2,7 39,4 4,4 12,8 23,4 0,4
26.2.08 1021,1 1010,7 1015,9 10,2 66,8 4,0 9,4 5,9 45,2 6,6 14,4 52,5 5,8
27.2.08 1021,2 1010,5 1015,9 5,5 70,5 0,5 3,8 7,1 45,7 1,8 8,3 40,6 0,5
28.2.08 1023,4 1018,2 1020,8 3,4 68,6 -2,1 3,2 1,1 45,7 -1,6 9,2 13,6 0,0
29.2.08 1021,4 1004,0 1012,7 5,0 78,5 1,6 4,6 3,0 53,8 1,4 8,5 36,3 8,1
1.3.08 1007,3 988,9 998,1 5,6 74,2 1,2 -0,3 27,7 65,1 1,4 7,8 116,0 11,3
2.3.08 1009,8 1001,7 1005,8 6,4 76,2 2,4 2,2 14,2 72,0 2,8 8,7 54,3 6,9
3.3.08 1011,9 1007,4 1009,7 5,4 76,3 1,6 3,7 7,4 73,9 -0,1 8,7 40,6 1,9
4.3.08 1017,6 1011,9 1014,8 1,7 62,2 -5,3 1,3 2,8 73,9 -3,1 8,4 19,8 0,0
5.3.08 1028,5 1017,5 1023,0 -1,5 42,4 -13,7 -2,0 2,8 73,9 -6,9 3,3 25,5 0,0
6.3.08 1028,1 1020,7 1024,4 -1,1 40,0 -14,2 -1,9 3,2 73,9 -9,0 7,4 30,6 0,0
7.3.08 1021,0 1013,0 1017,0 2,3 70,5 -2,5 2,2 1,3 74,0 -1,4 6,3 13,6 0,1
8.3.08 1013,0 1011,2 1012,1 2,9 80,6 -0,1 2,8 0,6 74,1 -1,4 7,5 11,1 0,1
9.3.08 1011,3 1005,7 1008,5 5,2 64,7 -1,4 4,2 5,2 74,1 2,2 10,3 29,1 0,0
10.3.08 1005,8 992,4 999,1 7,1 57,7 -1,3 6,0 5,7 75,3 0,8 13,2 32,4 1,2
11.3.08 1000,4 994,0 997,2 5,5 66,6 -0,3 3,0 9,4 77,2 2,8 9,5 52,2 1,9
12.3.08 1007,4 994,2 1000,8 6,3 70,3 1,0 2,5 15,7 91,5 2,5 11,3 65,1 14,3
13.3.08 1014,7 1007,7 1011,2 3,5 69,5 -1,7 0,6 9,1 95,0 1,3 9,3 44,2 3,5
14.3.08 1015,3 1008,2 1011,8 4,1 78,1 0,6 3,3 4,2 98,2 0,8 10,0 42,1 3,2
15.3.08 1016,6 1006,7 1011,7 5,5 57,5 -3,6 5,3 1,9 98,2 -3,8 14,7 17,6 0,0
16.3.08 1006,7 1002,0 1004,4 6,9 76,0 2,9 6,4 4,1 106,5 4,0 13,4 44,6 8,3
17.3.08 1008,8 1001,3 1005,1 2,7 72,0 -2,1 1,1 5,9 111,0 0,4 6,2 29,8 4,5
18.3.08 1011,6 1007,9 1009,8 -0,5 65,9 -6,1 -3,4 9,0 111,4 -2,7 3,5 50,4 0,4
19.3.08 1013,6 1009,6 1011,6 -0,1 70,6 -4,9 -0,9 3,7 114,6 -2,9 5,2 28,8 3,2
20.3.08 1013,4 999,6 1006,5 -0,1 73,1 -4,4 -1,2 4,8 119,2 -2,8 4,8 21,9 4,6
21.3.08 998,1 979,5 988,8 0,4 83,8 -2,0 -1,2 7,3 132,4 -0,9 4,9 47,5 13,2
22.3.08 993,4 983,0 988,2 1,0 71,6 -3,6 0,5 3,3 135,5 -1,4 5,5 36,0 3,1
23.3.08 997,9 993,3 995,6 -1,8 72,6 -6,0 -2,1 2,3 139,1 -4,1 1,5 21,2 3,6
24.3.08 996,9 993,7 995,3 -1,3 52,2 -10,9 -1,6 2,7 139,1 -5,2 4,8 23,0 0,0
25.3.08 1001,0 993,2 997,1 -1,5 64,3 -7,5 -3,7 6,6 140,5 -4,9 4,0 45,7 1,4
26.3.08 1001,8 1000,1 1001,0 -1,4 70,6 -6,1 -2,7 4,4 142,1 -4,4 1,4 31,3 1,6
27.3.08 1007,0 1000,2 1003,6 1,8 82,7 -0,9 1,2 3,1 143,3 -0,4 4,8 17,2 1,2
28.3.08 1013,0 1007,0 1010,0 5,4 64,1 -1,4 4,6 5,0 143,4 0,0 12,5 25,9 0,1
29.3.08 1019,9 1009,1 1014,5 5,3 61,4 -2,0 3,8 6,3 147,0 -0,9 11,0 45,7 3,6
30.3.08 1019,7 1011,1 1015,4 8,5 43,4 -3,3 7,1 7,4 147,0 0,5 16,5 25,2 0,0
31.3.08 1020,8 1011,6 1016,2 10,7 53,0 1,1 10,4 1,9 147,0 4,4 18,4 15,4 0,0
1.4.08 1022,5 1017,8 1020,2 9,6 62,9 2,0 9,3 2,2 147,0 3,5 18,2 31,6 0,0
2.4.08 1017,9 1016,0 1017,0 6,0 76,3 2,0 4,3 6,6 159,2 3,2 10,5 34,9 12,2
3.4.08 1024,2 1016,1 1020,2 4,1 83,6 1,5 3,7 2,5 165,6 2,4 11,0 23,4 6,4
4.4.08 1026,0 1020,3 1023,2 4,9 81,2 1,7 4,7 1,5 167,7 1,7 8,4 25,9 2,1
5.4.08 1020,2 1002,4 1011,3 4,3 76,7 0,3 3,6 3,8 168,5 -1,5 9,8 29,5 0,8
6.4.08 1002,2 999,5 1000,9 3,5 77,3 -0,3 3,4 1,6 172,0 0,1 9,8 18,0 3,5
7.4.08 1005,8 997,6 1001,7 0,7 78,4 -2,7 -0,5 4,3 177,1 -0,6 3,8 38,8 5,1
8.4.08 1006,5 1003,7 1005,1 4,0 58,6 -4,6 3,7 2,5 177,5 -1,6 12,6 30,2 0,4
9.4.08 1004,0 996,0 1000,0 5,8 68,2 0,2 5,7 2,0 178,3 2,3 12,1 17,2 0,8
10.4.08 999,8 995,8 997,8 6,0 86,5 3,8 5,9 0,7 180,6 3,1 10,8 10,0 2,3
11.4.08 1001,8 997,0 999,4 10,3 77,5 5,9 10,0 2,6 193,4 4,2 18,8 31,6 12,8
12.4.08 1012,3 1002,2 1007,3 6,3 67,3 -0,2 5,7 4,5 202,8 0,3 13,4 36,0 9,4
13.4.08 1015,1 1012,7 1013,9 7,3 56,5 -2,0 6,8 3,2 202,8 -1,6 14,2 29,5 0,0
14.4.08 1013,7 1011,0 1012,4 9,0 54,1 -0,4 8,5 4,1 202,8 2,5 16,8 28,6 0,0
15.4.08 1019,0 1013,0 1016,0 4,7 79,9 1,5 4,7 1,9 207,3 3,3 6,4 18,7 4,5
16.4.08 1018,8 1014,1 1016,5 4,0 71,6 -1,0 3,8 1,6 207,3 -1,6 11,2 13,3 0,0
17.4.08 1014,8 1005,2 1010,0 3,7 61,4 -3,5 3,5 1,5 207,3 -3,7 11,8 20,8 0,0
18.4.08 1005,1 999,0 1002,1 5,2 59,5 -2,7 4,7 3,7 207,3 -3,8 13,9 28,4 0,0
19.4.08 1005,7 996,8 1001,3 4,4 84,3 1,9 4,3 1,1 217,9 2,8 5,8 10,0 10,6
20.4.08 1009,3 1005,6 1007,5 6,5 83,4 3,8 6,4 1,6 218,5 3,9 10,7 14,4 0,6
21.4.08 1008,5 1001,8 1005,2 10,5 61,9 2,9 9,0 7,5 218,5 4,8 16,7 42,8 0,0
22.4.08 1012,5 1001,5 1007,0 8,4 77,0 4,5 7,8 4,3 219,2 7,3 10,4 28,0 0,7
23.4.08 1022,4 1012,6 1017,5 10,2 57,1 0,4 10,1 1,3 219,4 3,7 19,1 10,0 0,2
24.4.08 1023,8 1021,9 1022,9 9,3 62,4 1,8 9,1 2,2 219,4 2,5 17,2 15,4 0,0
25.4.08 1028,2 1021,8 1025,0 8,5 74,4 3,8 8,0 3,4 234,8 4,8 14,7 28,4 15,4
26.4.08 1029,1 1027,1 1028,1 10,2 60,5 1,0 10,2 1,1 234,9 0,9 20,7 22,3 0,1
27.4.08 1028,0 1017,3 1022,7 11,0 54,5 0,4 10,5 3,8 234,9 1,0 19,5 20,8 0,0
28.4.08 1017,3 1006,2 1011,8 14,4 51,4 3,5 13,9 5,0 239,4 7,2 22,1 37,4 4,5
29.4.08 1007,6 1005,0 1006,3 10,1 86,6 7,9 9,6 3,2 252,1 6,4 11,5 25,2 12,7
30.4.08 1007,9 1003,3 1005,6 11,1 68,6 4,5 10,5 4,5 252,1 5,2 18,4 33,8 0,0
1.5.08 1018,4 1008,1 1013,3 10,8 63,0 3,2 10,3 3,5 253,1 4,5 17,3 33,1 1,0
2.5.08 1024,5 1018,7 1021,6 9,8 62,0 1,7 9,4 3,3 253,1 1,1 19,1 37,8 0,0
3.5.08 1027,4 1024,5 1026,0 9,7 64,3 1,8 9,6 1,2 253,1 0,8 20,2 16,5 0,0
4.5.08 1026,6 1023,7 1025,2 10,1 53,0 -1,0 9,9 2,1 253,1 0,5 19,4 25,9 0,0
5.5.08 1027,1 1025,0 1026,1 8,8 70,6 3,6 8,7 1,7 253,1 0,5 17,1 22,6 0,0
6.5.08 1026,8 1024,6 1025,7 11,6 75,0 6,6 11,4 2,0 256,2 3,1 21,0 16,9 3,1
7.5.08 1025,2 1021,0 1023,1 12,4 53,9 0,2 12,1 2,6 256,2 2,7 21,4 18,3 0,0
8.5.08 1021,9 1018,7 1020,3 14,4 47,5 0,9 14,3 1,5 256,2 1,9 24,7 21,2 0,0
9.5.08 1019,9 1017,8 1018,9 15,6 47,1 1,8 15,4 2,9 256,2 3,8 25,1 31,6 0,0
10.5.08 1021,5 1019,6 1020,6 15,8 38,7 0,7 14,9 7,0 256,2 9,1 21,5 37,4 0,0
11.5.08 1021,6 1019,2 1020,4 15,0 41,6 0,1 13,9 6,7 256,2 5,7 21,5 47,2 0,0
12.5.08 1020,4 1017,9 1019,2 15,4 47,5 2,1 15,2 2,5 256,2 4,5 25,4 28,8 0,0
13.5.08 1018,7 1015,4 1017,1 15,7 54,8 4,5 15,3 3,6 270,1 6,4 25,1 29,1 13,9
14.5.08 1016,8 1013,3 1015,1 15,1 70,5 8,7 15,0 1,5 275,7 8,1 25,2 24,4 5,6
15.5.08 1013,9 1009,3 1011,6 15,7 66,6 7,8 15,6 2,1 287,6 6,2 27,1 26,2 11,9
16.5.08 1010,3 1008,3 1009,3 15,4 71,0 9,5 15,1 3,0 287,6 10,6 21,7 28,4 0,0
17.5.08 1009,3 1006,0 1007,7 13,9 77,1 9,6 13,6 3,1 293,3 7,3 20,5 25,9 5,7
18.5.08 1011,2 1007,0 1009,1 11,3 86,5 9,0 11,2 1,8 297,0 9,4 12,8 23,0 3,7
19.5.08 1014,8 1010,6 1012,7 9,9 81,8 6,8 9,8 2,0 298,8 5,8 13,1 27,4 1,8
20.5.08 1016,0 1014,0 1015,0 10,1 59,8 1,0 9,5 4,1 298,8 0,8 18,3 32,7 0,0
21.5.08 1017,1 1015,0 1016,1 8,8 75,0 4,4 8,4 2,7 299,1 3,5 12,1 24,4 0,3
22.5.08 1017,0 1015,9 1016,5 10,7 66,9 4,2 10,5 1,9 299,1 5,1 14,3 24,1 0,0
23.5.08 1016,7 1014,7 1015,7 11,7 75,0 7,3 11,7 0,7 299,2 8,8 15,8 13,3 0,1
24.5.08 1015,0 1013,1 1014,1 13,8 65,4 6,6 13,7 1,8 299,2 5,1 21,3 22,6 0,0
25.5.08 1016,9 1013,3 1015,1 16,0 60,9 7,6 15,8 2,9 299,2 8,1 22,0 23,0 0,0
26.5.08 1016,7 1013,3 1015,0 16,5 64,7 9,6 16,1 4,0 299,2 12,4 22,7 21,2 0,0
27.5.08 1016,5 1014,0 1015,3 19,1 70,1 13,0 19,0 2,8 299,2 12,2 26,7 27,7 0,0
28.5.08 1015,7 1012,5 1014,1 21,3 62,2 13,4 20,4 7,9 299,2 15,6 26,9 30,6 0,0
29.5.08 1016,1 1011,7 1013,9 21,2 60,3 12,7 20,5 7,1 299,2 14,9 28,4 34,4 0,0
30.5.08 1012,9 1009,9 1011,4 23,5 47,2 10,3 23,2 5,6 299,2 14,7 32,0 26,2 0,0
31.5.08 1016,6 1012,1 1014,4 21,3 59,2 12,4 21,1 3,0 299,2 13,7 28,8 28,0 0,0
1.6.08 1017,9 1014,2 1016,1 23,0 52,7 10,6 23,0 2,4 299,2 13,3 31,2 23,7 0,0
2.6.08 1014,9 1009,9 1012,4 22,1 52,6 10,9 21,7 5,5 299,2 13,8 28,7 26,2 0,0
3.6.08 1012,4 1009,5 1011,0 19,2 68,6 12,8 19,0 2,7 327,5 15,0 26,4 23,4 28,3
4.6.08 1012,7 1011,2 1012,0 16,4 88,1 14,4 16,3 1,3 328,3 14,3 19,4 23,0 0,8
5.6.08 1012,9 1010,8 1011,9 19,1 60,6 10,5 18,9 3,0 328,3 14,1 24,9 20,8 0,0
6.6.08 1013,0 1010,6 1011,8 17,6 48,6 5,6 17,1 4,7 328,3 10,8 23,2 25,2 0,0
7.6.08 1014,9 1011,8 1013,4 17,5 64,2 10,2 17,4 1,4 332,8 12,2 26,1 27,3 4,5
8.6.08 1018,7 1014,7 1016,7 18,2 58,7 8,5 18,0 2,6 334,1 10,4 27,5 37,8 1,3
9.6.08 1020,9 1018,6 1019,8 17,8 64,4 10,0 17,7 1,6 337,2 10,1 26,2 20,8 3,1
10.6.08 1021,0 1014,9 1018,0 21,2 54,8 8,8 21,1 1,6 342,9 10,6 30,8 26,8 5,7
11.6.08 1015,9 1013,5 1014,7 16,1 67,9 9,5 16,0 2,1 342,9 9,7 22,8 26,6 0,0
12.6.08 1014,3 1007,0 1010,7 12,3 65,6 5,6 12,2 1,7 342,9 6,8 17,5 25,5 0,0
13.6.08 1014,1 1006,1 1010,1 10,6 76,3 6,3 10,0 4,2 353,8 7,5 15,4 29,1 10,9
14.6.08 1014,2 1012,6 1013,4 11,5 63,3 3,5 11,3 2,0 353,8 3,2 20,1 18,0 0,0
15.6.08 1013,1 1008,3 1010,7 12,2 64,3 4,6 11,7 3,3 355,7 5,5 20,2 33,1 1,9
16.6.08 1010,5 1007,7 1009,1 12,2 74,7 7,4 12,1 1,2 360,0 8,9 18,5 19,0 4,3
17.6.08 1014,0 1010,4 1012,2 13,8 60,7 4,7 13,7 1,7 360,0 3,7 22,5 18,7 0,0
18.6.08 1015,9 1013,7 1014,8 17,7 58,3 8,2 17,6 0,6 360,5 11,8 25,0 15,1 0,5
19.6.08 1015,7 1013,2 1014,5 17,7 53,8 6,6 17,4 4,4 360,5 8,4 25,8 36,0 0,0
20.6.08 1019,5 1015,4 1017,5 16,9 57,4 7,7 16,4 4,2 360,5 10,5 22,9 37,8 0,0
21.6.08 1020,7 1018,8 1019,8 18,3 62,1 10,4 18,1 2,2 360,5 12,5 24,8 35,2 0,0
22.6.08 1020,4 1014,2 1017,3 22,8 52,7 10,7 22,6 3,7 360,5 12,0 32,3 32,7 0,0
23.6.08 1018,0 1014,6 1016,3 23,3 44,8 9,3 23,0 4,5 360,5 15,6 29,2 38,1 0,0
24.6.08 1018,8 1015,5 1017,2 21,4 42,7 7,5 21,4 0,8 360,5 13,5 30,0 16,9 0,0
25.6.08 1016,8 1012,3 1014,6 19,6 71,7 13,5 19,4 3,1 377,9 13,0 30,5 47,8 17,4
26.6.08 1020,0 1016,8 1018,4 20,0 55,4 8,8 19,8 2,8 377,9 13,4 25,8 25,5 0,0
27.6.08 1018,8 1016,2 1017,5 16,1 56,9 6,9 15,1 6,0 377,9 9,1 21,5 45,0 0,0
28.6.08 1019,2 1018,0 1018,6 17,0 64,3 9,8 16,5 4,1 377,9 10,0 22,9 37,0 0,0
29.6.08 1019,1 1015,8 1017,5 20,6 52,3 8,7 20,3 4,0 377,9 11,9 27,8 31,6 0,0
30.6.08 1020,5 1018,9 1019,7 23,1 33,6 5,7 22,9 2,7 377,9 13,8 26,8 32,4 0,0
1.7.08 1020,6 1014,5 1017,6 20,7 45,0 6,2 20,5 2,9 377,9 9,7 30,5 23,7 0,0
2.7.08 1015,4 1010,8 1013,1 24,2 35,7 6,9 24,1 4,3 377,9 16,2 31,3 23,4 0,0
3.7.08 1011,4 1007,6 1009,5 21,1 59,2 11,8 20,9 1,8 397,3 16,2 30,6 42,3 19,4
4.7.08 1015,1 1010,6 1012,9 18,4 59,8 9,1 17,5 6,3 398,7 12,4 23,6 35,6 1,4
5.7.08 1015,4 1012,8 1014,1 16,9 55,0 6,2 16,8 1,9 398,7 7,9 24,5 25,5 0,0
6.7.08 1013,7 1006,9 1010,3 18,0 63,5 9,4 17,9 1,0 410,4 11,5 29,7 19,0 11,7
7.7.08 1009,3 1007,1 1008,2 16,2 66,9 8,8 15,9 3,5 411,7 12,2 21,8 31,6 1,3
8.7.08 1013,4 1009,4 1011,4 15,1 63,4 8,0 14,4 6,1 414,0 12,5 20,8 37,4 2,3
9.7.08 1015,3 1013,5 1014,4 15,2 60,2 7,0 14,3 6,4 415,5 10,9 19,8 35,6 1,5
10.7.08 1015,4 1011,4 1013,4 19,0 59,1 9,8 18,8 3,1 415,8 12,6 27,2 26,6 0,3
11.7.08 1011,9 1008,0 1010,0 21,2 58,4 11,5 21,0 3,7 417,7 14,3 31,7 35,7 1,9
12.7.08 1011,8 1009,5 1010,7 17,1 70,9 11,4 16,8 3,6 419,4 13,7 20,8 25,2 1,7
13.7.08 1015,0 1010,2 1012,6 14,5 82,1 11,3 14,4 1,7 426,9 12,5 19,7 16,5 7,5
14.7.08 1023,7 1015,1 1019,4 16,2 64,3 8,3 16,1 1,7 426,9 11,4 22,4 20,2 0,0
15.7.08 1025,6 1022,3 1024,0 17,3 56,0 6,9 16,9 3,7 426,9 7,3 25,3 30,2 0,0
16.7.08 1022,3 1014,5 1018,4 17,1 64,5 9,9 16,7 3,7 426,9 10,4 24,4 33,8 0,0
17.7.08 1016,2 1012,9 1014,6 13,1 83,9 10,4 13,1 0,7 430,3 12,1 15,1 17,6 3,4
18.7.08 1014,0 1011,6 1012,8 14,1 79,3 10,4 13,8 2,8 431,4 11,4 18,4 26,2 1,1
19.7.08 1014,0 1008,5 1011,3 15,9 76,8 11,4 15,6 3,3 439,2 11,7 22,5 40,5 7,8
20.7.08 1014,3 1010,5 1012,4 16,3 67,4 9,0 15,3 3,7 445,7 10,2 23,3 31,6 6,5
21.7.08 1016,3 1013,9 1015,1 12,4 67,9 5,9 11,5 5,2 446,0 8,8 17,6 36,0 0,3
22.7.08 1022,0 1015,2 1018,6 11,7 86,8 9,5 10,9 4,7 453,7 9,7 14,9 33,8 7,7
23.7.08 1023,9 1021,8 1022,9 14,9 75,6 9,9 14,8 1,4 455,2 10,8 21,8 16,9 1,5
24.7.08 1022,2 1016,6 1019,4 15,1 71,8 9,3 14,8 3,2 455,8 6,4 23,4 32,7 0,6
25.7.08 1016,6 1012,8 1014,7 19,2 74,1 14,0 19,2 0,7 455,8 12,2 28,1 17,2 0,0
26.7.08 1016,1 1013,4 1014,8 22,2 58,5 11,5 22,1 3,2 455,8 13,4 31,1 28,8 0,0
27.7.08 1017,9 1015,9 1016,9 22,6 49,7 9,6 22,4 3,4 455,8 12,9 31,4 27,3 0,0
28.7.08 1018,1 1015,5 1016,8 23,4 39,3 6,8 23,2 5,3 455,8 13,1 30,8 32,8 0,0
29.7.08 1018,2 1015,8 1017,0 23,0 46,0 8,7 22,9 3,3 455,8 13,8 31,5 32,6 0,0
30.7.08 1019,3 1017,7 1018,5 24,5 49,3 11,2 24,5 1,7 455,8 14,9 33,6 21,2 0,0
31.7.08 1019,0 1016,4 1017,7 22,0 55,0 11,8 21,9 3,8 455,8 16,8 29,0 37,4 0,0
1.8.08 1017,6 1015,3 1016,5 20,4 68,6 14,0 20,2 3,4 460,8 16,0 27,4 27,3 5,0
2.8.08 1018,7 1015,9 1017,3 20,4 63,0 12,3 20,3 2,0 461,1 16,6 26,3 23,4 0,3
3.8.08 1016,2 1011,0 1013,6 20,3 59,4 11,9 20,0 4,0 461,1 16,5 25,6 31,6 0,0
4.8.08 1010,9 1005,3 1008,1 19,3 65,8 12,4 18,7 5,4 466,7 15,7 23,5 36,7 5,6
5.8.08 1016,2 1010,5 1013,4 19,0 49,7 7,4 18,4 5,5 466,7 13,1 24,3 37,0 0,0
6.8.08 1016,4 1012,3 1014,4 20,3 50,4 7,8 20,3 1,4 466,7 10,1 30,4 20,8 0,0
7.8.08 1013,3 1004,2 1008,8 23,2 42,6 7,9 23,0 5,2 466,7 13,1 31,5 16,9 0,0
8.8.08 1008,8 1005,2 1007,0 18,6 68,1 12,2 18,1 4,5 474,6 14,3 22,8 36,7 7,9
9.8.08 1013,4 1008,6 1011,0 15,8 63,0 7,8 15,2 5,0 475,0 10,1 21,6 33,8 0,4
10.8.08 1012,8 1007,6 1010,2 16,5 60,9 8,1 16,3 2,6 475,0 7,2 23,6 25,2 0,0
11.8.08 1008,3 1003,6 1006,0 20,4 58,8 11,1 20,2 2,6 485,9 15,0 27,6 25,9 10,9
12.8.08 1004,5 1000,0 1002,3 18,1 79,0 14,2 17,3 6,2 488,6 15,3 22,3 27,7 2,7
13.8.08 1013,5 1004,1 1008,8 18,3 52,9 7,5 17,4 7,1 488,6 13,5 23,5 41,7 0,0
14.8.08 1015,5 1012,1 1013,8 18,3 49,4 6,6 18,2 2,6 488,6 10,8 26,5 31,3 0,0
15.8.08 1012,1 1008,5 1010,3 12,5 86,7 10,3 12,3 2,4 513,6 10,5 15,4 32,7 25,0
16.8.08 1011,6 1009,3 1010,5 14,2 70,7 7,9 14,1 1,6 513,6 8,1 21,8 20,5 0,0
17.8.08 1011,6 1009,1 1010,4 16,0 58,1 5,7 15,9 2,1 513,6 5,7 25,2 29,5 0,0
18.8.08 1013,0 1010,7 1011,9 18,1 55,3 7,9 17,9 3,7 513,6 8,3 26,5 36,7 0,0
19.8.08 1012,0 1008,3 1010,2 19,5 66,1 12,0 19,4 2,9 537,1 12,8 29,3 27,7 23,5
20.8.08 1016,4 1010,6 1013,5 16,6 69,6 10,6 16,2 4,4 537,1 13,8 21,3 39,6 0,0
21.8.08 1017,9 1015,9 1016,9 17,1 59,4 8,2 16,7 3,5 537,1 11,2 23,0 26,6 0,0
22.8.08 1016,6 1008,0 1012,3 16,6 66,2 9,3 16,6 2,0 547,4 9,8 24,8 19,8 10,3
23.8.08 1010,3 1005,9 1008,1 15,0 65,3 7,6 13,9 7,0 551,3 9,7 20,4 36,7 3,9
24.8.08 1013,7 1009,0 1011,4 13,7 69,3 7,6 12,9 5,3 551,3 8,7 20,1 32,2 0,0
25.8.08 1017,6 1013,7 1015,7 13,9 73,5 8,8 13,8 1,9 551,3 6,3 21,8 27,3 0,0
26.8.08 1021,5 1017,5 1019,5 18,3 62,8 10,0 18,2 2,5 551,3 12,3 24,8 21,2 0,0
27.8.08 1021,6 1017,1 1019,4 17,8 63,9 9,5 17,7 1,8 551,3 9,2 27,2 24,8 0,0
28.8.08 1017,8 1016,1 1017,0 16,5 71,0 10,9 16,4 2,2 551,3 11,4 22,5 24,4 0,0
29.8.08 1017,7 1015,5 1016,6 15,9 73,2 10,9 15,5 3,1 551,3 11,9 20,4 24,1 0,0
30.8.08 1019,2 1016,8 1018,0 17,3 62,6 8,8 17,3 1,8 551,3 10,5 26,4 20,8 0,0
31.8.08 1017,6 1013,3 1015,5 17,6 45,4 4,1 17,1 5,3 551,3 8,7 25,2 30,2 0,0
1.9.08 1015,5 1012,7 1014,1 16,3 69,1 10,4 16,1 2,5 556,3 13,7 20,8 19,0 5,0
2.9.08 1015,5 1007,7 1011,6 18,0 72,9 12,4 17,8 3,0 556,3 13,3 24,7 26,6 0,0
3.9.08 1007,8 1002,4 1005,1 19,9 59,3 10,8 19,5 5,2 561,9 14,3 27,4 35,2 5,6
4.9.08 1008,6 1006,1 1007,4 14,8 84,0 12,0 14,4 3,2 570,5 11,6 18,8 25,5 8,6
5.9.08 1008,2 1004,5 1006,4 18,0 72,4 12,1 17,6 4,1 570,9 12,2 24,5 23,4 0,4
6.9.08 1008,6 1003,8 1006,2 20,5 58,9 11,2 20,5 1,8 590,5 14,1 29,1 18,0 19,6
7.9.08 1012,8 1008,5 1010,7 14,3 84,9 11,6 14,2 2,3 595,7 11,3 17,2 17,2 5,2
8.9.08 1017,6 1012,9 1015,3 13,9 75,4 9,1 13,7 2,6 595,9 9,1 21,1 26,6 0,2
9.9.08 1018,3 1015,2 1016,8 15,4 64,3 7,2 15,1 3,2 595,9 7,1 23,7 22,6 0,0
10.9.08 1016,2 1014,7 1015,5 16,7 71,1 10,8 16,6 2,3 596,0 9,8 26,7 25,2 0,1
11.9.08 1015,3 1009,9 1012,6 19,9 66,3 11,9 19,9 1,0 596,0 12,4 30,1 12,6 0,0
12.9.08 1012,3 1007,8 1010,1 18,2 61,9 10,4 17,8 4,0 596,8 14,1 24,0 14,0 0,8
13.9.08 1016,3 1012,2 1014,3 12,0 65,3 4,7 10,8 6,5 597,8 5,7 15,8 35,2 1,0
14.9.08 1019,1 1016,2 1017,7 8,2 59,3 0,0 7,6 3,9 597,8 2,8 14,1 33,1 0,0
15.9.08 1018,8 1017,2 1018,0 6,7 89,0 4,9 6,4 2,5 603,2 4,5 8,1 20,5 5,4
16.9.08 1019,6 1016,5 1018,1 5,7 82,9 2,9 5,6 1,6 603,2 4,1 7,4 19,8 0,0
17.9.08 1021,3 1019,0 1020,2 6,0 68,7 0,4 6,0 1,2 603,2 2,7 9,2 16,5 0,0
18.9.08 1021,8 1020,1 1021,0 6,7 63,5 -0,8 6,5 2,0 603,2 -2,3 17,4 21,6 0,0
19.9.08 1024,2 1020,4 1022,3 7,2 63,2 -0,3 7,1 1,8 603,2 -2,0 15,2 23,0 0,0
20.9.08 1026,5 1024,0 1025,3 8,5 73,6 3,9 8,5 1,0 603,2 6,5 11,0 15,8 0,0
21.9.08 1024,9 1016,3 1020,6 8,9 84,0 6,2 8,9 0,7 604,6 6,1 13,8 12,2 1,4
22.9.08 1016,2 1013,9 1015,1 9,0 87,4 6,9 8,9 1,2 611,9 6,2 15,2 21,9 7,3
23.9.08 1017,0 1014,5 1015,8 7,8 92,4 6,6 7,8 1,1 613,2 5,1 10,2 16,9 1,3
24.9.08 1021,5 1015,9 1018,7 9,5 91,3 8,1 9,4 1,6 614,3 8,0 11,0 18,0 1,1
25.9.08 1028,5 1021,2 1024,9 10,2 84,9 7,6 9,6 4,1 614,8 8,7 13,8 26,6 0,5
26.9.08 1031,6 1028,4 1030,0 9,9 76,7 5,4 9,6 2,9 614,8 3,6 17,2 30,6 0,0
27.9.08 1031,3 1025,7 1028,5 10,9 75,1 5,7 10,8 1,4 614,8 4,4 19,2 16,9 0,0
28.9.08 1025,7 1019,2 1022,5 9,5 68,4 2,5 9,4 1,3 614,8 0,2 21,5 25,2 0,0
29.9.08 1019,2 1011,9 1015,6 8,8 73,5 3,7 8,7 1,8 617,0 0,6 17,9 29,1 2,2
30.9.08 1012,2 1002,8 1007,5 8,8 83,6 6,0 8,1 4,8 619,7 7,2 12,5 30,6 2,7
1.10.08 1003,0 999,8 1001,4 9,9 92,0 8,6 8,5 7,2 645,1 8,5 11,4 48,6 25,4
2.10.08 1004,8 1001,9 1003,4 8,8 79,2 5,2 8,0 4,8 646,3 5,4 13,1 44,6 1,2
3.10.08 1009,2 1004,2 1006,7 5,6 80,4 2,4 5,4 2,5 647,3 0,3 8,7 20,8 1,0
4.10.08 1015,5 1008,9 1012,2 4,2 84,0 1,5 3,9 2,0 650,1 -0,5 11,8 27,3 2,8
5.10.08 1014,8 1008,1 1011,5 8,2 64,9 1,4 7,1 6,0 650,2 0,5 14,1 34,2 0,1
6.10.08 1015,9 1008,0 1012,0 11,3 87,5 9,1 10,7 4,5 654,1 9,2 12,5 34,9 3,9
7.10.08 1016,8 1014,5 1015,7 12,3 84,3 9,6 12,3 1,1 654,2 7,8 15,7 12,9 0,1
8.10.08 1019,3 1013,9 1016,6 12,5 81,7 9,1 12,3 3,0 654,2 7,1 19,2 23,0 0,0
9.10.08 1030,8 1019,3 1025,1 10,7 94,4 9,8 10,7 0,8 655,9 6,7 14,2 14,4 1,7
10.10.08 1032,2 1029,9 1031,1 11,6 83,6 8,6 11,5 1,2 656,0 5,8 18,8 16,2 0,1
11.10.08 1030,4 1028,0 1029,2 9,9 83,6 6,8 9,7 2,6 656,1 3,9 18,8 20,8 0,1
12.10.08 1028,0 1024,5 1026,3 11,1 84,6 8,2 11,0 1,9 656,1 7,4 17,8 21,6 0,0
13.10.08 1024,3 1018,0 1021,2 12,5 74,1 6,9 12,0 2,9 656,2 4,8 22,7 19,4 0,1
14.10.08 1019,0 1017,2 1018,1 13,5 83,7 10,7 13,4 1,6 656,2 9,4 17,4 21,7 0,0
15.10.08 1018,9 1013,1 1016,0 11,2 84,8 8,6 11,1 1,4 656,2 8,1 14,3 12,2 0,0
16.10.08 1011,2 1005,6 1008,4 9,6 93,1 8,5 9,1 3,6 685,6 4,6 12,4 31,3 29,4
17.10.08 1019,0 1011,2 1015,1 5,2 85,6 2,9 4,5 3,8 686,2 1,5 10,2 29,5 0,6
18.10.08 1019,0 1016,7 1017,9 4,3 74,9 -0,5 4,1 2,0 686,4 -2,2 13,4 16,9 0,2
19.10.08 1022,0 1018,5 1020,3 4,4 76,4 0,1 4,3 1,4 686,5 -2,1 13,4 23,0 0,1
20.10.08 1020,7 1013,9 1017,3 9,3 74,2 4,2 9,1 2,6 686,5 0,4 19,1 27,7 0,0
21.10.08 1013,9 1009,9 1011,9 13,1 81,1 9,6 12,7 4,0 694,8 9,0 19,9 25,5 8,3
22.10.08 1024,3 1012,6 1018,5 6,0 95,4 5,3 5,9 2,3 712,1 3,1 11,6 23,4 17,3
23.10.08 1028,5 1024,3 1026,4 3,8 87,8 1,8 3,7 1,3 712,3 -0,7 10,1 16,2 0,2
24.10.08 1026,0 1021,6 1023,8 3,5 81,2 0,2 3,1 3,1 712,5 -2,2 10,4 20,5 0,2
25.10.08 1030,2 1026,0 1028,1 6,8 76,7 2,4 6,6 1,0 712,5 1,1 16,3 16,9 0,0
26.10.08 1027,7 1013,8 1020,8 6,7 72,2 1,1 6,4 2,9 712,5 0,1 16,2 18,7 0,0
27.10.08 1013,8 1005,0 1009,4 7,4 84,6 4,8 7,0 3,4 718,1 5,4 9,5 28,0 5,6
28.10.08 1007,8 1005,8 1006,8 6,0 92,7 4,9 6,0 0,6 722,4 5,2 7,6 25,9 4,3
29.10.08 1007,0 996,4 1001,7 2,7 94,9 1,9 2,6 1,5 746,4 0,8 5,5 20,1 24,0
30.10.08 1000,3 990,2 995,3 1,1 91,6 -0,1 0,8 2,3 752,2 0,1 2,7 22,6 5,8
31.10.08 1007,6 1000,2 1003,9 3,5 83,2 0,9 3,1 2,6 752,2 -0,3 9,1 24,8 0,0
1.11.08 1011,2 1005,4 1008,3 5,0 84,6 2,3 5,0 0,4 752,2 -0,8 15,9 15,8 0,0
2.11.08 1015,7 1011,2 1013,5 7,6 84,1 4,9 6,9 3,7 752,2 -0,3 18,9 29,5 0,0
3.11.08 1015,0 1010,7 1012,9 10,6 79,3 7,0 9,7 5,1 752,2 5,7 14,9 29,3 0,0
4.11.08 1017,0 1013,6 1015,3 6,6 92,9 5,5 6,6 0,5 752,2 3,4 10,8 12,6 0,0
5.11.08 1013,6 1010,3 1012,0 9,7 88,5 7,8 9,4 3,0 752,2 6,1 14,9 29,5 0,0
6.11.08 1014,1 1012,0 1013,1 8,3 94,9 7,5 8,2 1,2 752,4 6,3 10,9 10,0 0,2
7.11.08 1016,5 1011,5 1014,0 8,2 84,2 5,6 8,1 1,8 752,4 6,8 9,3 18,7 0,0
8.11.08 1020,6 1016,5 1018,6 6,5 82,1 3,6 6,5 0,9 752,4 2,7 12,2 15,8 0,0
9.11.08 1020,8 1019,3 1020,1 8,2 82,3 5,1 6,7 7,4 753,6 4,5 12,5 32,4 1,2
10.11.08 1020,5 1016,2 1018,4 11,1 67,0 5,0 8,8 9,8 753,6 9,3 14,8 53,6 0,0
11.11.08 1016,3 1011,0 1013,7 9,7 64,6 3,1 8,7 6,1 753,7 6,0 14,9 41,4 0,1
12.11.08 1018,1 1014,8 1016,5 5,3 78,2 1,7 5,2 0,8 753,7 2,4 8,7 9,7 0,0
13.11.08 1024,0 1017,9 1021,0 2,6 81,1 -0,5 2,6 0,1 753,7 -3,2 10,7 2,5 0,0
14.11.08 1024,8 1023,3 1024,1 2,0 69,0 -3,5 1,7 2,0 753,9 -5,2 10,8 26,6 0,2
15.11.08 1024,5 1023,0 1023,8 5,9 77,1 2,1 5,3 4,1 753,9 4,1 8,3 24,4 0,0
16.11.08 1023,7 1019,6 1021,7 6,3 88,4 4,5 5,3 5,0 756,2 2,5 8,8 27,7 2,3
17.11.08 1027,0 1020,6 1023,8 2,0 68,1 -3,6 1,7 2,2 756,2 -3,9 9,8 23,4 0,0
18.11.08 1020,6 1009,7 1015,2 0,9 75,8 -3,0 0,2 4,3 756,2 -3,9 6,1 30,9 0,0
19.11.08 1014,6 1010,0 1012,3 3,8 82,6 1,0 1,6 7,7 757,9 2,4 5,4 42,4 1,7
20.11.08 1010,8 1002,2 1006,5 5,4 82,3 2,5 1,5 12,9 767,2 2,3 6,5 60,1 9,3
21.11.08 1003,6 990,2 996,9 0,5 82,5 -2,1 -1,1 6,2 774,0 -2,2 3,3 42,8 6,8
22.11.08 1000,6 994,4 997,5 -3,0 77,5 -6,4 -6,1 8,9 774,8 -4,3 -0,9 31,6 0,8
23.11.08 1001,9 988,8 995,4 -3,1 71,2 -7,5 -5,3 7,2 774,8 -5,4 -0,8 29,5 0,0
24.11.08 997,1 986,1 991,6 -1,7 78,5 -4,9 -2,3 3,5 774,8 -4,7 1,6 27,7 0,0
25.11.08 1015,2 997,1 1006,2 -3,0 77,1 -6,4 -3,5 3,0 774,8 -5,8 1,8 21,6 0,0
26.11.08 1021,0 1015,2 1018,1 -1,3 80,8 -4,1 -2,2 4,1 774,9 -3,6 0,7 24,1 0,1
27.11.08 1021,0 1012,9 1017,0 0,9 74,0 -3,3 0,7 1,9 777,2 -2,2 3,5 25,9 2,3
28.11.08 1012,7 994,7 1003,7 -1,8 71,0 -6,4 -2,6 4,4 777,4 -4,9 2,0 23,0 0,2
29.11.08 997,3 992,8 995,1 -1,2 73,5 -5,3 -2,2 4,2 777,4 -2,7 0,7 24,1 0,0
30.11.08 999,6 992,9 996,3 -0,1 75,9 -3,9 -1,3 5,4 778,5 -2,8 5,9 31,3 1,1
1.12.08 999,0 990,4 994,7 1,0 81,2 -1,9 0,2 3,6 781,6 -1,2 3,8 36,7 3,1
2.12.08 1006,1 997,9 1002,0 0,6 84,5 -1,6 -0,3 4,6 785,4 -0,8 1,4 34,2 3,8
3.12.08 1005,4 996,5 1001,0 -0,4 71,6 -5,0 -3,3 8,3 786,4 -3,5 1,5 38,1 1,0
4.12.08 1001,7 989,7 995,7 1,4 81,6 -1,4 -0,3 6,2 787,4 -0,1 2,5 33,8 1,0
5.12.08 995,6 988,5 992,1 2,2 83,2 -0,4 1,6 4,1 789,7 0,5 5,2 23,0 2,3
6.12.08 1010,2 995,6 1002,9 2,0 85,7 -0,2 1,8 2,3 791,9 0,7 2,9 28,4 2,2
7.12.08 1022,9 1010,2 1016,6 1,5 84,9 -0,8 1,3 2,1 794,3 0,3 3,2 19,4 2,4
8.12.08 1023,2 1018,0 1020,6 0,1 82,4 -2,5 -0,4 3,1 794,3 -2,8 1,5 23,0 0,0
9.12.08 1018,1 1008,6 1013,4 -1,5 78,3 -4,8 -2,0 3,9 794,3 -4,1 1,4 16,9 0,0
10.12.08 1009,9 1007,2 1008,6 -0,3 81,0 -3,1 -0,3 0,9 795,8 -1,2 1,0 15,8 1,5
11.12.08 1008,1 1005,9 1007,0 -1,2 87,0 -3,0 -1,2 0,6 795,8 -1,6 -0,4 11,8 0,0
12.12.08 1015,5 1007,7 1011,6 -1,3 82,3 -3,9 -1,3 0,1 795,8 -2,5 0,5 7,2 0,0
13.12.08 1014,3 1001,3 1007,8 -0,7 84,7 -2,9 -1,6 3,8 799,1 -2,8 1,1 30,2 3,3
14.12.08 1005,7 1001,3 1003,5 1,6 83,9 -0,8 -1,6 9,3 809,6 1,1 2,2 40,3 10,5
15.12.08 1012,8 1005,5 1009,2 2,6 80,8 -0,4 0,3 7,8 809,6 2,1 3,5 31,6 0,0
16.12.08 1013,1 1007,7 1010,4 1,6 86,8 -0,3 0,2 6,0 809,6 1,1 2,2 23,4 0,0
17.12.08 1010,3 1005,4 1007,9 0,9 88,5 -0,8 0,3 3,7 810,4 -1,4 2,4 24,8 0,8
18.12.08 1016,9 1010,3 1013,6 0,2 87,4 -1,6 -0,1 2,5 810,7 -1,5 1,7 23,4 0,3
19.12.08 1021,2 1014,1 1017,7 0,1 86,0 -1,9 -1,1 5,3 814,0 -1,2 1,2 29,8 3,3
20.12.08 1021,2 1015,6 1018,4 1,3 89,1 -0,3 0,3 5,1 822,9 0,1 3,1 37,8 8,9
21.12.08 1026,5 1020,1 1023,3 2,1 84,8 -0,2 1,4 4,3 825,3 -0,1 5,0 27,3 2,4
22.12.08 1025,7 1021,6 1023,7 4,7 91,1 3,3 2,1 9,0 826,3 1,7 6,8 43,2 1,0
23.12.08 1029,9 1023,0 1026,5 3,1 87,9 1,2 2,6 4,5 826,3 1,5 5,0 23,0 0,0
24.12.08 1029,5 1021,1 1025,3 2,7 90,7 1,3 2,1 4,1 830,6 1,5 5,4 26,6 4,3
25.12.08 1033,0 1021,9 1027,5 0,0 85,2 -2,3 -1,1 5,1 832,7 -5,2 2,5 28,8 2,1
26.12.08 1035,0 1032,5 1033,8 -4,9 63,4 -10,8 -5,6 4,1 832,7 -6,8 -2,0 27,0 0,0
27.12.08 1032,5 1029,3 1030,9 -4,7 60,3 -11,2 -6,0 5,4 832,7 -5,2 -3,6 23,7 0,0
28.12.08 1029,3 1026,1 1027,7 -5,0 57,3 -12,2 -6,9 6,5 832,7 -6,8 -0,6 28,0 0,0
29.12.08 1029,2 1025,8 1027,5 -5,0 53,5 -13,1 -7,0 6,4 832,7 -7,2 0,2 32,7 0,0
30.12.08 1029,2 1026,2 1027,7 -5,3 54,6 -13,2 -7,3 6,1 832,7 -7,5 0,1 28,8 0,0
31.12.08 1026,2 1019,1 1022,7 -6,8 62,2 -12,9 -7,7 4,2 832,7 -9,6 -0,4 23,4 0,0